Open Full Screen Window  High Contrast Mode
September 25, 2018 2:10 AM PDT
Present Weather: Mist
Weather Information
Wind Direction
  ---
Wind Speed
  00 kt (0 mph)
Wind Gust
  00 kt (0 mph)
Altimeter
29.92 in
Visibility
2 1/2 SM
Temperature
12° C
54° F
Dewpoint
11° C
52° F
Humidity
94%
1hr Rain Fall
00.00 in.
24hr Rain Fall
00.00 in.
Sky Condition
Overcast @ 200 ft
LIFR

METAR KCVH 250910Z AUTO 00000KT 2 1/2SM BR OVC002 12/11 A2992 RMK A01

FAA Disclaimer: The data displayed is for advisory purposes only and is not to be used for flight planning or operations.